sensor_id;sensor_type;location;lat;lon;timestamp;P1;durP1;ratioP1;P2;durP2;ratioP2
11709;SDS011;5911;51.036;6.972;2023-02-28T00:01:27;2.87;;;2.60;;
11709;SDS011;5911;51.036;6.972;2023-02-28T00:03:57;3.47;;;2.50;;
11709;SDS011;5911;51.036;6.972;2023-02-28T00:06:25;4.57;;;2.50;;
11709;SDS011;5911;51.036;6.972;2023-02-28T00:08:54;5.47;;;2.63;;
11709;SDS011;5911;51.036;6.972;2023-02-28T00:11:24;2.63;;;2.37;;
11709;SDS011;5911;51.036;6.972;2023-02-28T00:13:53;3.53;;;2.67;;
11709;SDS011;5911;51.036;6.972;2023-02-28T00:16:23;4.00;;;2.40;;
11709;SDS011;5911;51.036;6.972;2023-02-28T00:18:51;2.97;;;2.50;;
11709;SDS011;5911;51.036;6.972;2023-02-28T00:21:20;3.13;;;2.10;;
11709;SDS011;5911;51.036;6.972;2023-02-28T00:23:48;4.50;;;2.50;;
11709;SDS011;5911;51.036;6.972;2023-02-28T00:26:16;3.43;;;2.60;;
11709;SDS011;5911;51.036;6.972;2023-02-28T00:28:47;3.87;;;2.67;;
11709;SDS011;5911;51.036;6.972;2023-02-28T00:31:15;3.77;;;2.70;;
11709;SDS011;5911;51.036;6.972;2023-02-28T00:33:43;5.27;;;2.80;;
11709;SDS011;5911;51.036;6.972;2023-02-28T00:36:13;4.67;;;2.60;;
11709;SDS011;5911;51.036;6.972;2023-02-28T00:38:42;4.93;;;2.60;;
11709;SDS011;5911;51.036;6.972;2023-02-28T00:41:10;4.93;;;2.60;;
11709;SDS011;5911;51.036;6.972;2023-02-28T00:43:39;3.20;;;2.60;;
11709;SDS011;5911;51.036;6.972;2023-02-28T00:46:07;5.20;;;2.90;;
11709;SDS011;5911;51.036;6.972;2023-02-28T00:48:35;2.87;;;2.20;;
11709;SDS011;5911;51.036;6.972;2023-02-28T00:51:03;3.50;;;2.77;;
11709;SDS011;5911;51.036;6.972;2023-02-28T00:53:32;3.50;;;2.30;;
11709;SDS011;5911;51.036;6.972;2023-02-28T00:56:01;2.17;;;1.90;;
11709;SDS011;5911;51.036;6.972;2023-02-28T00:58:31;3.23;;;2.53;;
11709;SDS011;5911;51.036;6.972;2023-02-28T01:00:59;4.23;;;2.43;;
11709;SDS011;5911;51.036;6.972;2023-02-28T01:03:27;3.20;;;2.33;;
11709;SDS011;5911;51.036;6.972;2023-02-28T01:05:55;2.60;;;2.30;;
11709;SDS011;5911;51.036;6.972;2023-02-28T01:08:23;3.90;;;2.40;;
11709;SDS011;5911;51.036;6.972;2023-02-28T01:10:52;3.67;;;2.63;;
11709;SDS011;5911;51.036;6.972;2023-02-28T01:13:22;3.10;;;2.30;;
11709;SDS011;5911;51.036;6.972;2023-02-28T01:15:51;3.20;;;2.13;;
11709;SDS011;5911;51.036;6.972;2023-02-28T01:18:23;3.30;;;2.10;;
11709;SDS011;5911;51.036;6.972;2023-02-28T01:20:51;2.83;;;2.27;;
11709;SDS011;5911;51.036;6.972;2023-02-28T01:23:20;4.80;;;2.50;;
11709;SDS011;5911;51.036;6.972;2023-02-28T01:25:49;2.40;;;2.20;;
11709;SDS011;5911;51.036;6.972;2023-02-28T01:28:17;3.30;;;2.43;;
11709;SDS011;5911;51.036;6.972;2023-02-28T01:30:48;3.10;;;2.13;;
11709;SDS011;5911;51.036;6.972;2023-02-28T01:33:16;4.10;;;2.63;;
11709;SDS011;5911;51.036;6.972;2023-02-28T01:35:44;4.77;;;2.43;;
11709;SDS011;5911;51.036;6.972;2023-02-28T01:38:12;3.77;;;2.50;;
11709;SDS011;5911;51.036;6.972;2023-02-28T01:40:48;3.00;;;2.40;;
11709;SDS011;5911;51.036;6.972;2023-02-28T01:43:18;3.43;;;2.30;;
11709;SDS011;5911;51.036;6.972;2023-02-28T01:45:49;3.50;;;2.37;;
11709;SDS011;5911;51.036;6.972;2023-02-28T01:48:18;3.73;;;2.20;;
11709;SDS011;5911;51.036;6.972;2023-02-28T01:50:48;3.10;;;2.40;;
11709;SDS011;5911;51.036;6.972;2023-02-28T01:53:26;4.20;;;2.60;;
11709;SDS011;5911;51.036;6.972;2023-02-28T01:55:59;3.63;;;2.20;;
11709;SDS011;5911;51.036;6.972;2023-02-28T01:58:27;3.47;;;2.37;;
11709;SDS011;5911;51.036;6.972;2023-02-28T02:00:57;2.37;;;2.03;;
11709;SDS011;5911;51.036;6.972;2023-02-28T02:03:25;4.50;;;2.27;;
11709;SDS011;5911;51.036;6.972;2023-02-28T02:05:53;2.73;;;2.10;;
11709;SDS011;5911;51.036;6.972;2023-02-28T02:08:21;2.67;;;2.20;;
11709;SDS011;5911;51.036;6.972;2023-02-28T02:10:52;4.03;;;2.30;;
11709;SDS011;5911;51.036;6.972;2023-02-28T02:13:34;3.30;;;2.00;;
11709;SDS011;5911;51.036;6.972;2023-02-28T02:16:12;3.23;;;2.37;;
11709;SDS011;5911;51.036;6.972;2023-02-28T02:18:52;4.67;;;3.00;;
11709;SDS011;5911;51.036;6.972;2023-02-28T02:21:34;3.97;;;2.87;;
11709;SDS011;5911;51.036;6.972;2023-02-28T02:24:41;3.93;;;2.47;;
11709;SDS011;5911;51.036;6.972;2023-02-28T02:27:25;3.67;;;2.70;;
11709;SDS011;5911;51.036;6.972;2023-02-28T02:30:27;2.97;;;2.20;;
11709;SDS011;5911;51.036;6.972;2023-02-28T02:33:23;2.47;;;2.23;;
11709;SDS011;5911;51.036;6.972;2023-02-28T02:36:08;3.83;;;2.47;;
11709;SDS011;5911;51.036;6.972;2023-02-28T02:38:42;4.30;;;3.10;;
11709;SDS011;5911;51.036;6.972;2023-02-28T02:41:18;4.80;;;2.90;;
11709;SDS011;5911;51.036;6.972;2023-02-28T02:43:54;3.47;;;2.80;;
11709;SDS011;5911;51.036;6.972;2023-02-28T02:46:31;3.70;;;2.70;;
11709;SDS011;5911;51.036;6.972;2023-02-28T02:49:03;4.90;;;2.80;;
11709;SDS011;5911;51.036;6.972;2023-02-28T02:51:37;2.83;;;2.53;;
11709;SDS011;5911;51.036;6.972;2023-02-28T02:54:08;3.27;;;2.57;;
11709;SDS011;5911;51.036;6.972;2023-02-28T02:56:42;4.03;;;2.80;;
11709;SDS011;5911;51.036;6.972;2023-02-28T02:59:13;3.47;;;2.43;;
11709;SDS011;5911;51.036;6.972;2023-02-28T03:01:48;4.07;;;2.40;;
11709;SDS011;5911;51.036;6.972;2023-02-28T03:04:19;3.70;;;2.87;;
11709;SDS011;5911;51.036;6.972;2023-02-28T03:06:51;4.47;;;2.87;;
11709;SDS011;5911;51.036;6.972;2023-02-28T03:09:20;3.33;;;2.53;;
11709;SDS011;5911;51.036;6.972;2023-02-28T03:11:49;3.40;;;2.67;;
11709;SDS011;5911;51.036;6.972;2023-02-28T03:14:22;3.63;;;2.43;;
11709;SDS011;5911;51.036;6.972;2023-02-28T03:17:03;3.23;;;2.50;;
11709;SDS011;5911;51.036;6.972;2023-02-28T03:20:03;3.23;;;2.80;;
11709;SDS011;5911;51.036;6.972;2023-02-28T03:25:37;2.73;;;2.27;;
11709;SDS011;5911;51.036;6.972;2023-02-28T03:28:13;2.77;;;2.57;;
11709;SDS011;5911;51.036;6.972;2023-02-28T03:30:46;3.30;;;2.70;;
11709;SDS011;5911;51.036;6.972;2023-02-28T03:33:20;3.70;;;2.57;;
11709;SDS011;5911;51.036;6.972;2023-02-28T03:35:55;3.33;;;2.80;;
11709;SDS011;5911;51.036;6.972;2023-02-28T03:38:29;2.93;;;2.20;;
11709;SDS011;5911;51.036;6.972;2023-02-28T03:41:02;3.67;;;2.77;;
11709;SDS011;5911;51.036;6.972;2023-02-28T03:43:35;5.27;;;2.53;;
11709;SDS011;5911;51.036;6.972;2023-02-28T03:46:12;5.00;;;2.90;;
11709;SDS011;5911;51.036;6.972;2023-02-28T03:48:48;4.43;;;3.00;;
11709;SDS011;5911;51.036;6.972;2023-02-28T03:51:21;3.03;;;2.60;;
11709;SDS011;5911;51.036;6.972;2023-02-28T03:53:53;3.50;;;2.87;;
11709;SDS011;5911;51.036;6.972;2023-02-28T03:56:27;3.97;;;2.53;;
11709;SDS011;5911;51.036;6.972;2023-02-28T03:59:00;3.70;;;2.70;;
11709;SDS011;5911;51.036;6.972;2023-02-28T04:01:33;4.33;;;2.50;;
11709;SDS011;5911;51.036;6.972;2023-02-28T04:04:07;6.23;;;3.23;;
11709;SDS011;5911;51.036;6.972;2023-02-28T04:06:36;2.83;;;2.40;;
11709;SDS011;5911;51.036;6.972;2023-02-28T04:09:07;2.67;;;2.47;;
11709;SDS011;5911;51.036;6.972;2023-02-28T04:11:40;3.33;;;2.60;;
11709;SDS011;5911;51.036;6.972;2023-02-28T04:14:10;2.70;;;2.50;;
11709;SDS011;5911;51.036;6.972;2023-02-28T04:16:39;4.03;;;2.47;;
11709;SDS011;5911;51.036;6.972;2023-02-28T04:19:08;4.40;;;2.73;;
11709;SDS011;5911;51.036;6.972;2023-02-28T04:21:38;4.17;;;2.60;;
11709;SDS011;5911;51.036;6.972;2023-02-28T04:24:10;4.03;;;2.77;;
11709;SDS011;5911;51.036;6.972;2023-02-28T04:26:41;3.30;;;3.00;;
11709;SDS011;5911;51.036;6.972;2023-02-28T04:29:19;3.00;;;2.40;;
11709;SDS011;5911;51.036;6.972;2023-02-28T04:31:50;3.50;;;2.90;;
11709;SDS011;5911;51.036;6.972;2023-02-28T04:34:19;3.13;;;2.83;;
11709;SDS011;5911;51.036;6.972;2023-02-28T04:36:47;3.03;;;2.60;;
11709;SDS011;5911;51.036;6.972;2023-02-28T04:39:36;2.73;;;2.43;;
11709;SDS011;5911;51.036;6.972;2023-02-28T04:42:05;3.53;;;2.50;;
11709;SDS011;5911;51.036;6.972;2023-02-28T04:44:33;3.00;;;2.60;;
11709;SDS011;5911;51.036;6.972;2023-02-28T04:47:01;5.60;;;3.00;;
11709;SDS011;5911;51.036;6.972;2023-02-28T04:49:29;5.70;;;2.73;;
11709;SDS011;5911;51.036;6.972;2023-02-28T04:51:56;4.57;;;2.70;;
11709;SDS011;5911;51.036;6.972;2023-02-28T04:54:24;2.63;;;2.37;;
11709;SDS011;5911;51.036;6.972;2023-02-28T04:56:54;2.77;;;2.30;;
11709;SDS011;5911;51.036;6.972;2023-02-28T04:59:21;2.80;;;2.20;;
11709;SDS011;5911;51.036;6.972;2023-02-28T05:01:49;2.43;;;2.20;;
11709;SDS011;5911;51.036;6.972;2023-02-28T05:04:17;3.40;;;2.20;;
11709;SDS011;5911;51.036;6.972;2023-02-28T05:06:45;2.73;;;2.43;;
11709;SDS011;5911;51.036;6.972;2023-02-28T05:09:13;2.63;;;2.23;;
11709;SDS011;5911;51.036;6.972;2023-02-28T05:11:41;2.70;;;2.30;;
11709;SDS011;5911;51.036;6.972;2023-02-28T05:14:12;2.70;;;2.30;;
11709;SDS011;5911;51.036;6.972;2023-02-28T05:16:41;4.80;;;2.37;;
11709;SDS011;5911;51.036;6.972;2023-02-28T05:19:13;3.47;;;2.60;;
11709;SDS011;5911;51.036;6.972;2023-02-28T05:21:49;4.20;;;2.77;;
11709;SDS011;5911;51.036;6.972;2023-02-28T05:24:19;3.20;;;2.57;;
11709;SDS011;5911;51.036;6.972;2023-02-28T05:26:49;3.37;;;2.43;;
11709;SDS011;5911;51.036;6.972;2023-02-28T05:29:20;3.77;;;2.33;;
11709;SDS011;5911;51.036;6.972;2023-02-28T05:31:48;3.57;;;2.47;;
11709;SDS011;5911;51.036;6.972;2023-02-28T05:34:16;4.43;;;2.30;;
11709;SDS011;5911;51.036;6.972;2023-02-28T05:36:51;3.07;;;2.57;;
11709;SDS011;5911;51.036;6.972;2023-02-28T05:39:48;3.60;;;2.50;;
11709;SDS011;5911;51.036;6.972;2023-02-28T05:42:15;3.93;;;2.20;;
11709;SDS011;5911;51.036;6.972;2023-02-28T05:44:45;2.43;;;2.23;;
11709;SDS011;5911;51.036;6.972;2023-02-28T05:47:13;2.67;;;2.47;;
11709;SDS011;5911;51.036;6.972;2023-02-28T05:49:41;5.07;;;2.60;;
11709;SDS011;5911;51.036;6.972;2023-02-28T05:52:09;3.07;;;2.33;;
11709;SDS011;5911;51.036;6.972;2023-02-28T05:54:37;4.17;;;2.23;;
11709;SDS011;5911;51.036;6.972;2023-02-28T05:57:05;2.53;;;2.13;;
11709;SDS011;5911;51.036;6.972;2023-02-28T05:59:50;2.30;;;2.10;;
11709;SDS011;5911;51.036;6.972;2023-02-28T06:02:18;2.90;;;2.37;;
11709;SDS011;5911;51.036;6.972;2023-02-28T06:04:46;2.40;;;2.20;;
11709;SDS011;5911;51.036;6.972;2023-02-28T06:07:14;3.00;;;2.20;;
11709;SDS011;5911;51.036;6.972;2023-02-28T06:09:43;4.23;;;2.53;;
11709;SDS011;5911;51.036;6.972;2023-02-28T06:12:11;3.53;;;2.57;;
11709;SDS011;5911;51.036;6.972;2023-02-28T06:14:39;3.17;;;2.33;;
11709;SDS011;5911;51.036;6.972;2023-02-28T06:17:09;2.50;;;2.30;;
11709;SDS011;5911;51.036;6.972;2023-02-28T06:19:37;3.93;;;2.70;;
11709;SDS011;5911;51.036;6.972;2023-02-28T06:22:07;3.27;;;2.23;;
11709;SDS011;5911;51.036;6.972;2023-02-28T06:24:35;4.80;;;2.30;;
11709;SDS011;5911;51.036;6.972;2023-02-28T06:27:03;5.80;;;2.70;;
11709;SDS011;5911;51.036;6.972;2023-02-28T06:29:31;3.97;;;2.40;;
11709;SDS011;5911;51.036;6.972;2023-02-28T06:32:00;4.47;;;2.80;;
11709;SDS011;5911;51.036;6.972;2023-02-28T06:34:29;3.20;;;2.90;;
11709;SDS011;5911;51.036;6.972;2023-02-28T06:36:57;3.53;;;2.73;;
11709;SDS011;5911;51.036;6.972;2023-02-28T06:39:28;4.37;;;3.03;;
11709;SDS011;5911;51.036;6.972;2023-02-28T06:41:56;5.70;;;3.53;;
11709;SDS011;5911;51.036;6.972;2023-02-28T06:44:24;4.10;;;3.00;;
11709;SDS011;5911;51.036;6.972;2023-02-28T06:46:52;4.00;;;2.93;;
11709;SDS011;5911;51.036;6.972;2023-02-28T06:49:19;3.97;;;2.93;;
11709;SDS011;5911;51.036;6.972;2023-02-28T06:51:49;4.37;;;2.40;;
11709;SDS011;5911;51.036;6.972;2023-02-28T06:54:16;3.70;;;2.67;;
11709;SDS011;5911;51.036;6.972;2023-02-28T06:56:44;6.53;;;3.17;;
11709;SDS011;5911;51.036;6.972;2023-02-28T06:59:13;4.93;;;2.60;;
11709;SDS011;5911;51.036;6.972;2023-02-28T07:01:41;5.50;;;3.07;;
11709;SDS011;5911;51.036;6.972;2023-02-28T07:04:08;4.53;;;2.80;;
11709;SDS011;5911;51.036;6.972;2023-02-28T07:06:36;4.43;;;2.90;;
11709;SDS011;5911;51.036;6.972;2023-02-28T07:09:05;5.67;;;3.17;;
11709;SDS011;5911;51.036;6.972;2023-02-28T07:11:34;6.50;;;3.83;;
11709;SDS011;5911;51.036;6.972;2023-02-28T07:14:02;2.87;;;2.50;;
11709;SDS011;5911;51.036;6.972;2023-02-28T07:16:30;6.67;;;3.27;;
11709;SDS011;5911;51.036;6.972;2023-02-28T07:18:58;3.33;;;2.90;;
11709;SDS011;5911;51.036;6.972;2023-02-28T07:21:25;3.93;;;2.90;;
11709;SDS011;5911;51.036;6.972;2023-02-28T07:23:55;3.97;;;2.73;;
11709;SDS011;5911;51.036;6.972;2023-02-28T07:26:25;4.97;;;2.80;;
11709;SDS011;5911;51.036;6.972;2023-02-28T07:28:52;6.53;;;3.17;;
11709;SDS011;5911;51.036;6.972;2023-02-28T07:31:20;6.97;;;3.00;;
11709;SDS011;5911;51.036;6.972;2023-02-28T07:33:52;9.10;;;3.17;;
11709;SDS011;5911;51.036;6.972;2023-02-28T07:36:20;3.77;;;2.80;;
11709;SDS011;5911;51.036;6.972;2023-02-28T07:38:48;4.23;;;2.73;;
11709;SDS011;5911;51.036;6.972;2023-02-28T07:41:17;2.90;;;2.50;;
11709;SDS011;5911;51.036;6.972;2023-02-28T07:43:48;2.80;;;2.37;;
11709;SDS011;5911;51.036;6.972;2023-02-28T07:46:17;6.30;;;2.73;;
11709;SDS011;5911;51.036;6.972;2023-02-28T07:48:47;3.13;;;2.83;;
11709;SDS011;5911;51.036;6.972;2023-02-28T07:51:15;2.73;;;2.53;;
11709;SDS011;5911;51.036;6.972;2023-02-28T07:53:43;4.13;;;2.60;;
11709;SDS011;5911;51.036;6.972;2023-02-28T07:56:11;2.60;;;2.20;;
11709;SDS011;5911;51.036;6.972;2023-02-28T07:58:39;2.90;;;2.50;;
11709;SDS011;5911;51.036;6.972;2023-02-28T08:01:09;4.30;;;2.37;;
11709;SDS011;5911;51.036;6.972;2023-02-28T08:03:37;2.90;;;2.40;;
11709;SDS011;5911;51.036;6.972;2023-02-28T08:06:06;11.53;;;2.90;;
11709;SDS011;5911;51.036;6.972;2023-02-28T08:08:42;4.40;;;2.60;;
11709;SDS011;5911;51.036;6.972;2023-02-28T08:11:10;5.57;;;2.70;;
11709;SDS011;5911;51.036;6.972;2023-02-28T08:13:38;3.77;;;2.70;;
11709;SDS011;5911;51.036;6.972;2023-02-28T08:16:06;3.43;;;2.73;;
11709;SDS011;5911;51.036;6.972;2023-02-28T08:18:35;3.30;;;2.83;;
11709;SDS011;5911;51.036;6.972;2023-02-28T08:21:07;3.63;;;2.43;;
11709;SDS011;5911;51.036;6.972;2023-02-28T08:23:35;2.57;;;2.30;;
11709;SDS011;5911;51.036;6.972;2023-02-28T08:26:03;2.93;;;2.30;;
11709;SDS011;5911;51.036;6.972;2023-02-28T08:28:31;5.50;;;2.27;;
11709;SDS011;5911;51.036;6.972;2023-02-28T08:30:59;2.33;;;2.13;;
11709;SDS011;5911;51.036;6.972;2023-02-28T08:33:27;2.53;;;1.73;;
11709;SDS011;5911;51.036;6.972;2023-02-28T08:35:56;4.87;;;2.20;;
11709;SDS011;5911;51.036;6.972;2023-02-28T08:38:24;2.93;;;1.70;;
11709;SDS011;5911;51.036;6.972;2023-02-28T08:40:57;2.70;;;1.80;;
11709;SDS011;5911;51.036;6.972;2023-02-28T08:43:26;1.87;;;1.67;;
11709;SDS011;5911;51.036;6.972;2023-02-28T08:45:54;2.50;;;2.00;;
11709;SDS011;5911;51.036;6.972;2023-02-28T08:48:23;2.43;;;1.90;;
11709;SDS011;5911;51.036;6.972;2023-02-28T08:50:56;2.43;;;1.90;;
11709;SDS011;5911;51.036;6.972;2023-02-28T08:53:33;2.30;;;1.67;;
11709;SDS011;5911;51.036;6.972;2023-02-28T08:56:02;3.00;;;1.90;;
11709;SDS011;5911;51.036;6.972;2023-02-28T08:58:32;1.87;;;1.63;;
11709;SDS011;5911;51.036;6.972;2023-02-28T09:01:06;2.47;;;1.97;;
11709;SDS011;5911;51.036;6.972;2023-02-28T09:03:35;1.90;;;1.80;;
11709;SDS011;5911;51.036;6.972;2023-02-28T09:06:05;1.93;;;1.70;;
11709;SDS011;5911;51.036;6.972;2023-02-28T09:08:33;3.47;;;1.83;;
11709;SDS011;5911;51.036;6.972;2023-02-28T09:11:04;2.40;;;1.90;;
11709;SDS011;5911;51.036;6.972;2023-02-28T09:13:35;1.60;;;1.40;;
11709;SDS011;5911;51.036;6.972;2023-02-28T09:16:04;2.67;;;2.10;;
11709;SDS011;5911;51.036;6.972;2023-02-28T09:18:33;2.87;;;2.10;;
11709;SDS011;5911;51.036;6.972;2023-02-28T09:21:02;1.80;;;1.70;;
11709;SDS011;5911;51.036;6.972;2023-02-28T09:23:32;3.27;;;2.00;;
11709;SDS011;5911;51.036;6.972;2023-02-28T09:26:00;1.90;;;1.53;;
11709;SDS011;5911;51.036;6.972;2023-02-28T09:28:28;2.47;;;1.57;;
11709;SDS011;5911;51.036;6.972;2023-02-28T09:30:56;2.30;;;1.90;;
11709;SDS011;5911;51.036;6.972;2023-02-28T09:33:25;1.93;;;1.73;;
11709;SDS011;5911;51.036;6.972;2023-02-28T09:35:57;2.33;;;1.87;;
11709;SDS011;5911;51.036;6.972;2023-02-28T09:38:28;2.43;;;2.10;;
11709;SDS011;5911;51.036;6.972;2023-02-28T09:40:57;2.80;;;2.07;;
11709;SDS011;5911;51.036;6.972;2023-02-28T09:43:27;2.37;;;1.97;;
11709;SDS011;5911;51.036;6.972;2023-02-28T09:46:00;3.07;;;1.93;;
11709;SDS011;5911;51.036;6.972;2023-02-28T09:48:40;2.77;;;1.90;;
11709;SDS011;5911;51.036;6.972;2023-02-28T09:51:13;1.83;;;1.67;;
11709;SDS011;5911;51.036;6.972;2023-02-28T09:53:52;2.90;;;1.57;;
11709;SDS011;5911;51.036;6.972;2023-02-28T09:56:28;1.73;;;1.63;;
11709;SDS011;5911;51.036;6.972;2023-02-28T09:59:01;2.83;;;1.97;;
11709;SDS011;5911;51.036;6.972;2023-02-28T10:01:34;1.77;;;1.63;;
11709;SDS011;5911;51.036;6.972;2023-02-28T10:04:08;3.20;;;2.10;;
11709;SDS011;5911;51.036;6.972;2023-02-28T10:06:46;2.73;;;1.80;;
11709;SDS011;5911;51.036;6.972;2023-02-28T10:09:17;3.13;;;2.07;;
11709;SDS011;5911;51.036;6.972;2023-02-28T10:11:50;2.97;;;1.53;;
11709;SDS011;5911;51.036;6.972;2023-02-28T10:14:23;2.83;;;1.80;;
11709;SDS011;5911;51.036;6.972;2023-02-28T10:16:54;3.27;;;1.73;;
11709;SDS011;5911;51.036;6.972;2023-02-28T10:19:25;2.50;;;1.57;;
11709;SDS011;5911;51.036;6.972;2023-02-28T10:22:01;2.23;;;1.53;;
11709;SDS011;5911;51.036;6.972;2023-02-28T10:24:37;1.40;;;1.30;;
11709;SDS011;5911;51.036;6.972;2023-02-28T10:27:14;1.80;;;1.50;;
11709;SDS011;5911;51.036;6.972;2023-02-28T10:29:43;1.80;;;1.53;;
11709;SDS011;5911;51.036;6.972;2023-02-28T10:32:14;3.00;;;1.50;;
11709;SDS011;5911;51.036;6.972;2023-02-28T10:34:45;3.67;;;1.67;;
11709;SDS011;5911;51.036;6.972;2023-02-28T10:37:28;1.50;;;1.40;;
11709;SDS011;5911;51.036;6.972;2023-02-28T10:39:59;2.23;;;1.50;;
11709;SDS011;5911;51.036;6.972;2023-02-28T10:42:28;3.63;;;1.67;;
11709;SDS011;5911;51.036;6.972;2023-02-28T10:45:07;1.63;;;1.40;;
11709;SDS011;5911;51.036;6.972;2023-02-28T10:47:48;1.97;;;1.60;;
11709;SDS011;5911;51.036;6.972;2023-02-28T10:50:26;2.80;;;1.60;;
11709;SDS011;5911;51.036;6.972;2023-02-28T10:52:57;2.97;;;1.60;;
11709;SDS011;5911;51.036;6.972;2023-02-28T10:55:37;2.50;;;1.90;;
11709;SDS011;5911;51.036;6.972;2023-02-28T10:58:13;4.03;;;2.13;;
11709;SDS011;5911;51.036;6.972;2023-02-28T11:00:48;2.63;;;1.73;;
11709;SDS011;5911;51.036;6.972;2023-02-28T11:03:29;2.20;;;1.80;;
11709;SDS011;5911;51.036;6.972;2023-02-28T11:06:04;2.33;;;1.60;;
11709;SDS011;5911;51.036;6.972;2023-02-28T11:08:34;3.63;;;1.77;;
11709;SDS011;5911;51.036;6.972;2023-02-28T11:11:12;3.13;;;1.80;;
11709;SDS011;5911;51.036;6.972;2023-02-28T11:13:40;3.10;;;1.90;;
11709;SDS011;5911;51.036;6.972;2023-02-28T11:16:09;3.63;;;1.80;;
11709;SDS011;5911;51.036;6.972;2023-02-28T11:18:40;3.40;;;1.93;;
11709;SDS011;5911;51.036;6.972;2023-02-28T11:21:15;4.90;;;2.03;;
11709;SDS011;5911;51.036;6.972;2023-02-28T11:23:46;3.77;;;1.90;;
11709;SDS011;5911;51.036;6.972;2023-02-28T11:26:18;1.90;;;1.67;;
11709;SDS011;5911;51.036;6.972;2023-02-28T11:29:17;4.93;;;2.57;;
11709;SDS011;5911;51.036;6.972;2023-02-28T11:32:03;4.13;;;2.57;;
11709;SDS011;5911;51.036;6.972;2023-02-28T11:34:37;3.87;;;2.20;;
11709;SDS011;5911;51.036;6.972;2023-02-28T11:37:09;2.00;;;1.70;;
11709;SDS011;5911;51.036;6.972;2023-02-28T11:39:40;2.50;;;2.10;;
11709;SDS011;5911;51.036;6.972;2023-02-28T11:42:20;2.20;;;1.90;;
11709;SDS011;5911;51.036;6.972;2023-02-28T11:45:19;3.20;;;1.90;;
11709;SDS011;5911;51.036;6.972;2023-02-28T11:47:55;1.83;;;1.73;;
11709;SDS011;5911;51.036;6.972;2023-02-28T11:50:38;3.70;;;2.00;;
11709;SDS011;5911;51.036;6.972;2023-02-28T11:53:16;1.83;;;1.63;;
11709;SDS011;5911;51.036;6.972;2023-02-28T11:55:51;2.17;;;1.93;;
11709;SDS011;5911;51.036;6.972;2023-02-28T11:58:29;2.30;;;1.90;;
11709;SDS011;5911;51.036;6.972;2023-02-28T12:01:09;4.33;;;2.30;;
11709;SDS011;5911;51.036;6.972;2023-02-28T12:04:14;2.33;;;1.90;;
11709;SDS011;5911;51.036;6.972;2023-02-28T12:06:52;2.67;;;2.23;;
11709;SDS011;5911;51.036;6.972;2023-02-28T12:09:29;2.70;;;2.33;;
11709;SDS011;5911;51.036;6.972;2023-02-28T12:12:08;3.20;;;2.07;;
11709;SDS011;5911;51.036;6.972;2023-02-28T12:14:58;2.00;;;1.80;;
11709;SDS011;5911;51.036;6.972;2023-02-28T12:17:45;2.60;;;2.20;;
11709;SDS011;5911;51.036;6.972;2023-02-28T12:20:25;2.87;;;2.30;;
11709;SDS011;5911;51.036;6.972;2023-02-28T12:23:06;2.53;;;2.03;;
11709;SDS011;5911;51.036;6.972;2023-02-28T12:25:51;3.53;;;2.30;;
11709;SDS011;5911;51.036;6.972;2023-02-28T12:28:33;2.53;;;2.30;;
11709;SDS011;5911;51.036;6.972;2023-02-28T12:31:08;3.87;;;2.50;;
11709;SDS011;5911;51.036;6.972;2023-02-28T12:33:46;2.80;;;1.97;;
11709;SDS011;5911;51.036;6.972;2023-02-28T12:36:18;2.33;;;2.03;;
11709;SDS011;5911;51.036;6.972;2023-02-28T12:38:48;2.47;;;2.20;;
11709;SDS011;5911;51.036;6.972;2023-02-28T12:41:26;2.23;;;1.93;;
11709;SDS011;5911;51.036;6.972;2023-02-28T12:44:02;15.70;;;3.07;;
11709;SDS011;5911;51.036;6.972;2023-02-28T12:46:35;3.63;;;2.23;;
11709;SDS011;5911;51.036;6.972;2023-02-28T12:49:09;4.10;;;2.53;;
11709;SDS011;5911;51.036;6.972;2023-02-28T12:51:40;2.20;;;2.00;;
11709;SDS011;5911;51.036;6.972;2023-02-28T12:54:10;8.00;;;2.50;;
11709;SDS011;5911;51.036;6.972;2023-02-28T12:56:45;3.00;;;2.20;;
11709;SDS011;5911;51.036;6.972;2023-02-28T12:59:23;2.90;;;2.10;;
11709;SDS011;5911;51.036;6.972;2023-02-28T13:05:02;4.93;;;1.90;;
11709;SDS011;5911;51.036;6.972;2023-02-28T13:10:53;5.07;;;2.60;;
11709;SDS011;5911;51.036;6.972;2023-02-28T13:13:22;2.90;;;2.27;;
11709;SDS011;5911;51.036;6.972;2023-02-28T13:15:59;2.40;;;2.20;;
11709;SDS011;5911;51.036;6.972;2023-02-28T13:18:32;3.33;;;2.60;;
11709;SDS011;5911;51.036;6.972;2023-02-28T13:21:04;2.97;;;2.60;;
11709;SDS011;5911;51.036;6.972;2023-02-28T13:23:39;4.30;;;2.40;;
11709;SDS011;5911;51.036;6.972;2023-02-28T13:29:30;2.03;;;1.83;;
11709;SDS011;5911;51.036;6.972;2023-02-28T13:35:16;3.60;;;2.20;;
11709;SDS011;5911;51.036;6.972;2023-02-28T13:38:12;5.37;;;2.20;;
11709;SDS011;5911;51.036;6.972;2023-02-28T13:40:44;2.50;;;2.30;;
11709;SDS011;5911;51.036;6.972;2023-02-28T13:43:12;2.30;;;2.10;;
11709;SDS011;5911;51.036;6.972;2023-02-28T13:46:10;2.87;;;2.00;;
11709;SDS011;5911;51.036;6.972;2023-02-28T13:48:39;2.30;;;2.10;;
11709;SDS011;5911;51.036;6.972;2023-02-28T13:51:31;5.00;;;2.10;;
11709;SDS011;5911;51.036;6.972;2023-02-28T13:54:16;2.60;;;1.97;;
11709;SDS011;5911;51.036;6.972;2023-02-28T13:56:54;3.13;;;2.23;;
11709;SDS011;5911;51.036;6.972;2023-02-28T13:59:33;3.43;;;2.20;;
11709;SDS011;5911;51.036;6.972;2023-02-28T14:02:25;2.40;;;1.90;;
11709;SDS011;5911;51.036;6.972;2023-02-28T14:05:06;2.37;;;2.10;;
11709;SDS011;5911;51.036;6.972;2023-02-28T14:07:45;2.50;;;2.17;;
11709;SDS011;5911;51.036;6.972;2023-02-28T14:10:21;3.77;;;2.30;;
11709;SDS011;5911;51.036;6.972;2023-02-28T14:15:41;2.43;;;2.23;;
11709;SDS011;5911;51.036;6.972;2023-02-28T14:18:15;4.37;;;2.63;;
11709;SDS011;5911;51.036;6.972;2023-02-28T14:20:47;3.10;;;2.30;;
11709;SDS011;5911;51.036;6.972;2023-02-28T14:23:21;2.87;;;2.43;;
11709;SDS011;5911;51.036;6.972;2023-02-28T14:26:01;2.73;;;2.33;;
11709;SDS011;5911;51.036;6.972;2023-02-28T14:28:40;3.40;;;2.42;;
11709;SDS011;5911;51.036;6.972;2023-02-28T14:31:18;4.53;;;2.75;;
11709;SDS011;5911;51.036;6.972;2023-02-28T14:34:02;4.70;;;3.13;;
11709;SDS011;5911;51.036;6.972;2023-02-28T14:36:41;3.95;;;2.92;;
11709;SDS011;5911;51.036;6.972;2023-02-28T14:39:13;5.07;;;2.67;;
11709;SDS011;5911;51.036;6.972;2023-02-28T14:41:43;3.47;;;2.92;;
11709;SDS011;5911;51.036;6.972;2023-02-28T14:44:15;4.15;;;2.85;;
11709;SDS011;5911;51.036;6.972;2023-02-28T14:46:45;3.97;;;2.58;;
11709;SDS011;5911;51.036;6.972;2023-02-28T14:49:24;5.38;;;2.85;;
11709;SDS011;5911;51.036;6.972;2023-02-28T14:52:02;3.40;;;2.60;;
11709;SDS011;5911;51.036;6.972;2023-02-28T14:54:37;3.77;;;2.43;;
11709;SDS011;5911;51.036;6.972;2023-02-28T14:57:05;5.53;;;2.57;;
11709;SDS011;5911;51.036;6.972;2023-02-28T14:59:34;3.57;;;2.67;;
11709;SDS011;5911;51.036;6.972;2023-02-28T15:02:19;2.83;;;2.53;;
11709;SDS011;5911;51.036;6.972;2023-02-28T15:04:52;4.57;;;3.25;;
11709;SDS011;5911;51.036;6.972;2023-02-28T15:07:24;3.30;;;2.83;;
11709;SDS011;5911;51.036;6.972;2023-02-28T15:10:10;2.20;;;2.03;;
11709;SDS011;5911;51.036;6.972;2023-02-28T15:12:48;2.87;;;2.37;;
11709;SDS011;5911;51.036;6.972;2023-02-28T15:15:20;3.17;;;2.30;;
11709;SDS011;5911;51.036;6.972;2023-02-28T15:18:06;2.88;;;2.50;;
11709;SDS011;5911;51.036;6.972;2023-02-28T15:20:47;3.37;;;2.73;;
11709;SDS011;5911;51.036;6.972;2023-02-28T15:23:38;2.63;;;2.30;;
11709;SDS011;5911;51.036;6.972;2023-02-28T15:26:12;2.63;;;2.13;;
11709;SDS011;5911;51.036;6.972;2023-02-28T15:29:06;3.07;;;2.37;;
11709;SDS011;5911;51.036;6.972;2023-02-28T15:31:47;2.80;;;2.20;;
11709;SDS011;5911;51.036;6.972;2023-02-28T15:34:26;2.83;;;2.40;;
11709;SDS011;5911;51.036;6.972;2023-02-28T15:40:05;4.37;;;2.63;;
11709;SDS011;5911;51.036;6.972;2023-02-28T15:42:41;4.63;;;2.40;;
11709;SDS011;5911;51.036;6.972;2023-02-28T15:45:26;4.20;;;2.20;;
11709;SDS011;5911;51.036;6.972;2023-02-28T15:47:57;2.60;;;2.37;;
11709;SDS011;5911;51.036;6.972;2023-02-28T15:50:39;3.43;;;2.57;;
11709;SDS011;5911;51.036;6.972;2023-02-28T15:53:11;2.53;;;2.27;;
11709;SDS011;5911;51.036;6.972;2023-02-28T15:55:41;2.77;;;2.57;;
11709;SDS011;5911;51.036;6.972;2023-02-28T15:58:11;3.47;;;2.30;;